Time;durP1;ratioP1;P1;durP2;ratioP2;P2;SDS_P1;SDS_P2;PMS_P1;PMS_P2;Temp;Humidity;BMP_temperature;BMP_pressure;BME280_temperature;BME280_humidity;BME280_pressure;Samples;Min_cycle;Max_cycle;Signal;HPM_P1;HPM_P2
2021/07/28 00:01:37;;;;;;;4.07;3.70;;;;;;;16.95;75.17;99547.63;4960238;28;20043;-76
2021/07/28 00:04:02;;;;;;;3.33;3.08;;;;;;;16.93;75.61;99538.88;4971013;28;20049;-77
2021/07/28 00:06:28;;;;;;;3.80;3.50;;;;;;;17.04;75.42;99544.84;4978172;28;20031;-75
2021/07/28 00:09:22;;;;;;;4.05;3.75;;;;;;;17.15;75.12;99535.06;4979927;28;20035;-74
2021/07/28 00:11:48;;;;;;;3.90;3.60;;;;;;;17.12;74.92;99532.97;4966644;28;20030;-76
2021/07/28 00:14:14;;;;;;;6.28;3.85;;;;;;;17.16;75.06;99533.94;4968557;28;20035;-74
2021/07/28 00:17:11;;;;;;;4.63;3.08;;;;;;;17.18;75.05;99545.44;4968040;28;20034;-76
2021/07/28 00:20:12;;;;;;;3.67;3.47;;;;;;;17.18;75.15;99539.91;4983516;28;20038;-86
2021/07/28 00:40:18;;;;;;;6.32;4.28;;;;;;;16.92;75.03;99538.09;4969583;28;20127;-78
2021/07/28 00:46:05;;;;;;;4.50;4.20;;;;;;;16.77;75.83;99519.25;4985593;28;20102;-77
2021/07/28 01:02:47;;;;;;;3.65;3.40;;;;;;;16.83;75.17;99514.38;4952712;29;20047;-78
2021/07/28 01:05:59;;;;;;;3.42;3.22;;;;;;;16.79;75.21;99519.72;4938819;29;20074;-76
2021/07/28 01:08:59;;;;;;;4.28;3.88;;;;;;;16.79;75.19;99516.97;4937133;29;20031;-78
2021/07/28 01:12:08;;;;;;;;;;;;;;;;;;;;;
2021/07/28 01:32:04;;;;;;;;;;;;;;;;;;;;;
2021/07/28 01:35:14;;;;;;;3.65;3.40;;;;;;;16.79;75.19;99519.72;4813140;29;20130;-78
2021/07/28 01:38:25;;;;;;;3.05;2.95;;;;;;;16.66;75.00;99495.91;4810781;29;20046;-78
2021/07/28 01:42:12;;;;;;;;;;;;;;;;;;;;;
2021/07/28 01:48:46;;;;;;;3.72;3.53;;;;;;;16.83;75.24;99528.97;4792496;29;20050;-77
2021/07/28 01:55:02;;;;;;;5.72;4.00;;;;;;;16.78;75.33;99512.59;4775521;30;20419;-79
2021/07/28 02:01:33;;;;;;;4.32;3.92;;;;;;;16.76;75.24;99523.16;4863276;29;20077;-79
2021/07/28 02:05:01;;;;;;;;;;;;;;;;;;;;;
2021/07/28 02:07:43;;;;;;;;;;;;;;;16.73;75.35;99530.16;4907825;29;20035;-79
2021/07/28 02:23:35;;;;;;;4.40;4.20;;;;;;;16.59;76.08;99529.53;4902927;29;20055;-79
2021/07/28 02:51:21;;;;;;;5.93;5.38;;;;;;;16.28;76.54;99538.84;5001918;28;20036;-76
2021/07/28 03:11:10;;;;;;;7.38;6.63;;;;;;;16.02;78.45;99527.81;4917430;29;20061;-79
2021/07/28 03:13:35;;;;;;;8.00;7.35;;;;;;;15.84;77.98;99511.28;4914618;29;20066;-77
2021/07/28 03:20:54;;;;;;;;;;;;;;;;;;;;;
2021/07/28 03:27:47;;;;;;;7.22;6.65;;;;;;;16.17;77.79;99535.59;4855121;29;20049;-79
2021/07/28 03:55:56;;;;;;;;;;;;;;;;;;;;;
2021/07/28 04:06:55;;;;;;;;;;;;;;;;;;;;;
2021/07/28 04:17:34;;;;;;;;;;;;;;;;;;;;;
2021/07/28 04:20:45;;;;;;;7.60;6.97;;;;;;;16.52;76.03;99534.75;4688988;30;20042;-79
2021/07/28 04:24:08;;;;;;;5.97;5.68;;;;;;;16.60;75.45;99535.88;4703228;30;20046;-78
2021/07/28 04:26:56;;;;;;;5.93;5.63;;;;;;;16.52;75.99;99535.56;4699840;30;20045;-79
2021/07/28 04:30:06;;;;;;;;;;;;;;;;;;;;;
2021/07/28 04:33:27;;;;;;;5.25;4.88;;;;;;;16.52;76.01;99541.06;4728291;30;20131;-77
2021/07/28 04:36:01;;;;;;;6.53;5.78;;;;;;;16.37;76.21;99528.59;4785463;29;20051;-77
2021/07/28 04:47:09;;;;;;;;;;;;;;;;;;;;;
2021/07/28 04:49:24;;;;;;;6.28;3.63;;;;;;;16.32;75.82;99541.75;4826144;29;20030;-77
2021/07/28 04:52:24;;;;;;;4.32;4.07;;;;;;;16.36;75.78;99551.81;4880972;29;20510;-76
2021/07/28 04:54:51;;;;;;;3.53;3.42;;;;;;;16.39;75.76;99553.91;4891034;29;20067;-77
2021/07/28 04:57:20;;;;;;;4.57;3.90;;;;;;;16.37;75.61;99541.59;4907402;29;20134;-77
2021/07/28 05:00:16;;;;;;;3.42;3.33;;;;;;;16.37;75.54;99538.84;4903067;29;20115;-77
2021/07/28 05:03:24;;;;;;;2.80;2.70;;;;;;;16.39;75.23;99539.31;4885494;29;20055;-77
2021/07/28 05:06:09;;;;;;;2.67;2.55;;;;;;;16.50;74.80;99553.56;4903610;29;20122;-78
2021/07/28 05:09:41;;;;;;;;;;;;;;;;;;;;;
2021/07/28 05:13:05;;;;;;;3.15;2.95;;;;;;;16.54;74.68;99562.81;4851674;29;20117;-78
2021/07/28 05:16:51;;;;;;;;;;;;;;;;;;;;;
2021/07/28 05:26:37;;;;;;;;;;;;;;;;;;;;;
2021/07/28 05:29:49;;;;;;;;;;;;;;;;;;;;;
2021/07/28 05:36:38;;;;;;;;;;;;;;;;;;;;;
2021/07/28 05:43:12;;;;;;;;;;;;;;;;;;;;;
2021/07/28 05:45:38;;;;;;;2.00;1.90;;;;;;;16.68;72.77;99577.25;4832902;29;20113;-78
2021/07/28 05:58:56;;;;;;;5.45;1.25;;;;;;;16.67;71.61;99559.06;4862427;29;20049;-78
2021/07/28 06:06:16;;;;;;;;;;;;;;;;;;;;;
2021/07/28 06:12:19;;;;;;;1.13;1.13;;;;;;;16.57;72.14;99593.34;4814316;29;20042;-76
2021/07/28 06:14:45;;;;;;;0.88;0.88;;;;;;;16.58;72.14;99578.38;4839488;29;20041;-75
2021/07/28 06:18:05;;;;;;;0.98;0.98;;;;;;;16.62;72.19;99572.22;4828991;29;20037;-78
2021/07/28 06:20:25;;;;;;;;;;;;;;;;;;;;;
2021/07/28 06:23:14;;;;;;;1.10;0.90;;;;;;;16.85;72.20;99587.44;4832722;29;20089;-75
2021/07/28 06:26:02;;;;;;;2.17;0.77;;;;;;;16.78;71.86;99573.34;4846174;29;20047;-75
2021/07/28 06:29:25;;;;;;;;;;;;;;;;;;;;;
2021/07/28 06:50:34;;;;;;;1.58;0.75;;;;;;;17.33;69.30;99568.13;4807369;29;20072;-77
2021/07/28 07:00:12;;;;;;;;;;;;;;;;;;;;;
2021/07/28 07:02:48;;;;;;;1.20;0.70;;;;;;;17.62;67.60;99581.97;4817883;29;20124;-76
2021/07/28 07:05:15;;;;;;;1.23;0.90;;;;;;;17.69;67.08;99586.16;4821698;29;20049;-74
2021/07/28 07:07:50;;;;;;;1.58;0.93;;;;;;;17.73;67.27;99585.16;4884732;29;20042;-74
2021/07/28 07:10:43;;;;;;;;;;;;;;;;;;;;;
2021/07/28 07:13:38;;;;;;;2.70;0.70;;;;;;;17.95;67.18;99589.59;4980978;28;20099;-77
2021/07/28 07:16:06;;;;;;;3.92;0.57;;;;;;;18.06;66.84;99583.66;4961490;28;20063;-78
2021/07/28 07:18:32;;;;;;;4.72;0.63;;;;;;;18.09;66.37;99563.63;4982090;28;20156;-77
2021/07/28 07:21:03;;;;;;;1.10;0.50;;;;;;;18.22;65.74;99581.91;4949354;28;20104;-77
2021/07/28 07:23:31;;;;;;;3.53;0.73;;;;;;;18.19;65.48;99565.19;4943618;28;20098;-77
2021/07/28 07:25:58;;;;;;;0.80;0.80;;;;;;;18.30;65.23;99583.00;4951350;28;20027;-76
2021/07/28 07:28:25;;;;;;;6.18;0.95;;;;;;;18.39;64.50;99563.53;4976699;28;20084;-76
2021/07/28 07:30:51;;;;;;;0.90;0.70;;;;;;;18.53;64.78;99568.78;4949658;28;20035;-76
2021/07/28 07:36:00;;;;;;;1.17;0.77;;;;;;;18.67;63.29;99578.41;5004581;28;20393;-77
2021/07/28 07:38:26;;;;;;;6.07;0.88;;;;;;;18.72;63.47;99576.56;4983885;28;20026;-76
2021/07/28 07:40:51;;;;;;;3.22;0.55;;;;;;;18.81;62.56;99580.06;4996764;28;20025;-76
2021/07/28 07:43:16;;;;;;;1.08;0.70;;;;;;;18.70;62.52;99573.34;5005659;28;20080;-77
2021/07/28 07:45:42;;;;;;;1.70;0.80;;;;;;;18.90;63.12;99585.56;4950452;28;20030;-77
2021/07/28 07:48:07;;;;;;;1.25;0.60;;;;;;;19.09;61.61;99568.38;4977144;28;20040;-74
2021/07/28 07:50:35;;;;;;;0.50;0.50;;;;;;;19.31;62.03;99579.00;5005852;28;20030;-76
2021/07/28 07:53:02;;;;;;;0.70;0.70;;;;;;;19.58;60.75;99585.03;5007289;28;20030;-75
2021/07/28 07:55:28;;;;;;;1.90;0.77;;;;;;;19.77;59.33;99578.91;4980308;28;20113;-76
2021/07/28 07:57:53;;;;;;;6.03;0.85;;;;;;;19.82;58.71;99580.66;4976795;28;20200;-75
2021/07/28 08:00:19;;;;;;;4.70;1.00;;;;;;;19.81;58.49;99581.81;4998038;28;20027;-76
2021/07/28 08:02:44;;;;;;;1.13;0.80;;;;;;;19.96;58.91;99578.31;4988719;28;20026;-76
2021/07/28 08:05:10;;;;;;;1.80;0.73;;;;;;;20.21;57.78;99583.81;4985522;28;20030;-74
2021/07/28 08:07:36;;;;;;;3.38;0.88;;;;;;;20.34;56.83;99577.06;4981472;28;20026;-74
2021/07/28 08:10:01;;;;;;;0.60;0.57;;;;;;;20.34;56.47;99571.50;5000329;28;20057;-73
2021/07/28 08:12:27;;;;;;;7.45;0.82;;;;;;;20.23;56.55;99592.59;4968109;28;20026;-75
2021/07/28 08:14:54;;;;;;;0.93;0.82;;;;;;;20.19;57.36;99583.34;4981471;28;20038;-75
2021/07/28 08:17:19;;;;;;;1.83;0.70;;;;;;;20.28;56.94;99589.56;5005441;28;20472;-74
2021/07/28 08:19:44;;;;;;;0.70;0.70;;;;;;;20.44;56.44;99586.03;4985924;28;20057;-74
2021/07/28 08:22:10;;;;;;;1.45;0.82;;;;;;;20.52;55.87;99585.88;4988445;28;20085;-74
2021/07/28 08:24:35;;;;;;;4.50;0.88;;;;;;;20.55;55.62;99587.94;4983765;28;20038;-76
2021/07/28 08:27:01;;;;;;;0.80;0.57;;;;;;;20.61;55.26;99588.50;4980478;28;20050;-76
2021/07/28 08:29:26;;;;;;;1.67;0.60;;;;;;;20.80;54.27;99592.63;5007028;28;20062;-75
2021/07/28 08:31:52;;;;;;;2.15;0.70;;;;;;;20.86;53.06;99591.19;5015022;28;20030;-75
2021/07/28 08:34:17;;;;;;;2.38;0.65;;;;;;;20.72;51.82;99592.44;5007185;28;20194;-75
2021/07/28 08:36:43;;;;;;;2.50;0.68;;;;;;;20.61;52.48;99594.06;4966461;28;20030;-74
2021/07/28 08:39:09;;;;;;;1.10;0.75;;;;;;;20.65;53.21;99592.19;5006712;28;20400;-75
2021/07/28 08:41:36;;;;;;;0.75;0.52;;;;;;;20.79;52.42;99591.00;4981674;28;20110;-75
2021/07/28 08:44:02;;;;;;;0.90;0.90;;;;;;;20.96;52.60;99599.00;4998510;28;20382;-73
2021/07/28 08:46:28;;;;;;;1.60;0.52;;;;;;;21.23;51.92;99596.50;4998485;28;20119;-73
2021/07/28 08:48:54;;;;;;;1.05;0.50;;;;;;;21.50;52.11;99591.22;5001132;28;20314;-75
2021/07/28 08:51:25;;;;;;;5.10;0.60;;;;;;;21.65;50.67;99592.41;4983909;28;20026;-75
2021/07/28 08:53:50;;;;;;;0.85;0.60;;;;;;;21.60;50.31;99591.50;4998368;28;20543;-76
2021/07/28 08:56:19;;;;;;;0.95;0.40;;;;;;;21.63;50.54;99589.19;4984245;28;20038;-75
2021/07/28 08:58:44;;;;;;;0.65;0.40;;;;;;;21.52;50.39;99594.47;4994249;28;20037;-74
2021/07/28 09:01:10;;;;;;;5.45;1.00;;;;;;;21.25;50.04;99594.19;4994790;28;20042;-76
2021/07/28 09:03:35;;;;;;;0.70;0.40;;;;;;;20.99;51.01;99592.72;4984703;28;20469;-74
2021/07/28 09:06:01;;;;;;;3.28;0.60;;;;;;;20.95;51.58;99591.81;4996889;28;20042;-76
2021/07/28 09:08:33;;;;;;;8.00;0.80;;;;;;;21.04;51.36;99592.47;5001778;28;20049;-76
2021/07/28 09:11:04;;;;;;;0.70;0.70;;;;;;;21.06;51.19;99606.81;4996987;28;20037;-75
2021/07/28 09:13:36;;;;;;;1.23;0.63;;;;;;;21.08;50.80;99621.19;4999243;28;20480;-75
2021/07/28 09:16:05;;;;;;;0.60;0.50;;;;;;;21.09;50.48;99594.97;4998129;28;20468;-74
2021/07/28 09:18:41;;;;;;;0.25;0.25;;;;;;;21.26;50.12;99601.34;4994729;28;20109;-74
2021/07/28 09:21:27;;;;;;;2.28;0.80;;;;;;;21.54;50.14;99592.16;4979496;28;20548;-74
2021/07/28 09:24:14;;;;;;;0.95;0.70;;;;;;;21.76;49.33;99594.25;4997195;28;20022;-76
2021/07/28 09:26:51;;;;;;;2.30;0.80;;;;;;;21.72;48.31;99585.03;4995138;28;20034;-74
2021/07/28 09:29:27;;;;;;;0.75;0.55;;;;;;;21.54;47.83;99578.25;4982719;28;20018;-74
2021/07/28 09:48:48;;;;;;;;;;;;;;;;;;;;;
2021/07/28 09:55:59;;;;;;;0.52;0.52;;;;;;;21.45;47.24;99576.44;4881421;29;20032;-74
2021/07/28 09:58:22;;;;;;;4.57;0.75;;;;;;;21.37;47.30;99560.72;4878064;29;20040;-75
2021/07/28 10:01:35;;;;;;;1.30;0.60;;;;;;;21.51;47.64;99553.91;4878996;29;20036;-75
2021/07/28 10:05:04;;;;;;;1.10;0.57;;;;;;;21.76;47.33;99560.88;4872210;29;21190;-75
2021/07/28 10:12:04;;;;;;;2.17;0.73;;;;;;;21.70;47.57;99562.34;4944544;28;20596;-76
2021/07/28 10:18:23;;;;;;;1.73;0.60;;;;;;;22.46;46.31;99550.84;4816285;29;20092;-75
2021/07/28 10:32:29;;;;;;;;;;;;;;;;;;;;;
2021/07/28 10:36:10;;;;;;;;;;;;;;;;;;;;;
2021/07/28 10:49:42;;;;;;;0.77;0.57;;;;;;;24.63;40.77;99535.44;4754823;30;20104;-75
2021/07/28 10:53:06;;;;;;;1.13;0.80;;;;;;;24.89;39.99;99537.28;4748944;30;20060;-74
2021/07/28 10:59:26;;;;;;;0.85;0.85;;;;;;;26.30;36.85;99527.88;4701094;30;20095;-75
2021/07/28 11:02:00;;;;;;;0.82;0.60;;;;;;;26.45;35.93;99527.91;4694828;30;20053;-75
2021/07/28 11:04:56;;;;;;;1.48;0.70;;;;;;;25.92;36.25;99518.88;4837761;29;20123;-74
2021/07/28 11:08:02;;;;;;;0.82;0.50;;;;;;;25.01;36.41;99532.59;4910672;29;20070;-75
2021/07/28 11:10:32;;;;;;;5.00;0.82;;;;;;;24.06;37.94;99513.19;4904467;29;20028;-75
2021/07/28 11:13:17;;;;;;;0.85;0.70;;;;;;;23.92;39.91;99527.81;4981639;28;20043;-75
2021/07/28 11:15:56;;;;;;;1.00;0.65;;;;;;;23.75;40.27;99531.91;4991075;28;20084;-75
2021/07/28 11:18:50;;;;;;;1.80;1.02;;;;;;;23.35;40.12;99531.34;4996538;28;20035;-75
2021/07/28 11:21:22;;;;;;;3.25;1.05;;;;;;;22.26;57.04;99543.66;5005602;28;20073;-71
2021/07/28 11:23:51;;;;;;;2.28;0.80;;;;;;;20.82;62.61;99565.28;4980650;28;20069;-74
2021/07/28 11:26:37;;;;;;;1.50;0.88;;;;;;;19.46;66.02;99568.41;4984213;28;20041;-74
2021/07/28 11:29:06;;;;;;;0.55;0.50;;;;;;;18.44;70.69;99594.59;4972423;28;20026;-74
2021/07/28 11:31:35;;;;;;;2.70;0.60;;;;;;;17.53;74.59;99595.00;5003447;28;20034;-74
2021/07/28 11:34:21;;;;;;;2.55;0.50;;;;;;;16.70;76.50;99591.53;4975532;28;20028;-75
2021/07/28 11:36:55;;;;;;;;;;;;;;;16.19;77.85;99588.50;4984570;28;20060;-78
2021/07/28 11:39:21;;;;;;;1.38;0.50;;;;;;;15.72;80.09;99582.72;5009678;28;19921;-76
2021/07/28 11:41:49;;;;;;;0.90;0.90;;;;;;;15.58;81.14;99590.31;4989233;28;20033;-76
2021/07/28 11:44:15;;;;;;;0.90;0.70;;;;;;;15.49;81.67;99588.34;4989234;28;20137;-76
2021/07/28 11:46:52;;;;;;;1.50;0.80;;;;;;;15.57;82.25;99580.44;5001493;28;20034;-76
2021/07/28 11:49:18;;;;;;;0.60;0.32;;;;;;;15.65;82.33;99574.94;5023622;28;20049;-75
2021/07/28 11:51:49;;;;;;;1.85;0.85;;;;;;;15.85;82.33;99584.56;4972648;28;20026;-75
2021/07/28 11:54:26;;;;;;;;;;;;;;;16.29;81.98;99581.03;5015619;28;20041;-78
2021/07/28 11:57:22;;;;;;;0.77;0.55;;;;;;;16.65;82.24;99566.88;5005371;28;19952;-77
2021/07/28 11:59:52;;;;;;;1.35;0.45;;;;;;;17.63;80.85;99558.69;5027032;28;20018;-77
2021/07/28 12:02:31;;;;;;;0.22;0.22;;;;;;;18.44;79.55;99566.91;5005621;28;20010;-75
2021/07/28 12:05:07;;;;;;;3.40;0.40;;;;;;;18.90;76.89;99566.97;5109221;23;20092;-75
2021/07/28 12:08:05;;;;;;;0.85;0.35;;;;;;;19.12;76.16;99567.69;5001057;28;20022;-74
2021/07/28 12:10:30;;;;;;;4.43;1.65;;;;;;;19.17;76.26;99559.13;4972704;28;20034;-74
2021/07/28 12:13:19;;;;;;;0.50;0.50;;;;;;;19.52;75.57;99564.22;4973765;28;20040;-75
2021/07/28 12:16:03;;;;;;;1.25;0.80;;;;;;;20.58;74.63;99567.00;4990896;28;20094;-72
2021/07/28 12:18:50;;;;;;;0.90;0.40;;;;;;;21.87;72.26;99563.09;4986572;28;20015;-75
2021/07/28 12:21:16;;;;;;;0.95;0.30;;;;;;;23.27;68.68;99574.22;4989363;28;20030;-74
2021/07/28 12:23:52;;;;;;;0.45;0.20;;;;;;;24.71;64.51;99583.84;4988752;28;20030;-76
2021/07/28 12:26:45;;;;;;;0.52;0.40;;;;;;;25.89;58.67;99574.84;4996206;28;20015;-75
2021/07/28 12:29:33;;;;;;;0.38;0.20;;;;;;;26.80;56.02;99576.91;5502812;22;20327;-76
2021/07/28 12:32:16;;;;;;;0.40;0.20;;;;;;;27.74;50.61;99599.41;5014134;28;20046;-76
2021/07/28 12:34:49;;;;;;;0.50;0.20;;;;;;;27.95;47.32;99578.91;4986332;28;20026;-76
2021/07/28 12:37:32;;;;;;;0.32;0.20;;;;;;;27.51;46.29;99576.19;4971429;28;20031;-76
2021/07/28 12:40:04;;;;;;;0.25;0.20;;;;;;;26.29;42.70;99565.50;4976313;28;20046;-77
2021/07/28 12:42:31;;;;;;;0.38;0.20;;;;;;;26.15;44.95;99559.81;5017974;28;20006;-77
2021/07/28 12:45:15;;;;;;;0.73;0.10;;;;;;;27.47;48.61;99564.16;4982517;28;20024;-77
2021/07/28 12:47:43;;;;;;;0.17;0.15;;;;;;;28.50;43.57;99567.09;4987438;28;20014;-77
2021/07/28 12:50:15;;;;;;;0.45;0.45;;;;;;;29.03;40.17;99565.19;4969895;28;20054;-75
2021/07/28 12:52:45;;;;;;;0.40;0.40;;;;;;;29.89;38.73;99568.50;4999052;28;20038;-76
2021/07/28 12:55:12;;;;;;;0.40;0.20;;;;;;;30.95;38.49;99550.59;4986977;28;20061;-76
2021/07/28 12:57:37;;;;;;;1.23;0.15;;;;;;;31.66;32.18;99538.59;4988430;28;20022;-76
2021/07/28 13:00:04;;;;;;;0.17;0.17;;;;;;;32.30;31.61;99561.16;4982732;28;20115;-76
2021/07/28 13:02:32;;;;;;;0.57;0.28;;;;;;;32.23;29.91;99545.16;4987038;28;21253;-76
2021/07/28 13:04:57;;;;;;;0.40;0.30;;;;;;;31.06;28.96;99536.38;4984395;28;20006;-75
2021/07/28 13:10:20;;;;;;;0.65;0.30;;;;;;;27.56;34.16;99549.69;4960585;28;20046;-77
2021/07/28 13:12:46;;;;;;;0.28;0.20;;;;;;;25.91;38.76;99573.28;4999124;28;20021;-76
2021/07/28 13:15:12;;;;;;;1.00;0.20;;;;;;;24.14;47.46;99564.38;4986933;28;20072;-76
2021/07/28 13:17:37;;;;;;;0.32;0.30;;;;;;;22.33;51.95;99565.28;5003966;28;20026;-76
2021/07/28 13:20:03;;;;;;;5.38;0.47;;;;;;;20.87;66.57;99576.16;4978264;28;20332;-75
2021/07/28 13:22:29;;;;;;;0.47;0.38;;;;;;;19.28;72.19;99585.25;4975779;28;20034;-78
2021/07/28 13:24:55;;;;;;;1.23;0.30;;;;;;;17.92;76.08;99583.94;4989666;28;20125;-77
2021/07/28 13:27:22;;;;;;;0.40;0.32;;;;;;;16.96;78.26;99576.88;4997107;28;20045;-77
2021/07/28 13:29:53;;;;;;;0.90;0.40;;;;;;;16.43;79.95;99565.13;5002307;28;20038;-79
2021/07/28 13:32:18;;;;;;;3.08;0.50;;;;;;;16.03;81.54;99570.78;4987103;28;20081;-78
2021/07/28 13:34:44;;;;;;;1.17;0.40;;;;;;;15.85;83.03;99584.56;4969491;28;20043;-77
2021/07/28 13:37:09;;;;;;;3.33;0.30;;;;;;;15.76;83.94;99569.13;4989399;28;20034;-77
2021/07/28 13:39:37;;;;;;;0.68;0.68;;;;;;;15.93;85.14;99563.66;4968915;28;20023;-78
2021/07/28 13:42:05;;;;;;;0.70;0.45;;;;;;;16.27;85.64;99562.03;4980471;28;20042;-78
2021/07/28 13:44:31;;;;;;;0.30;0.30;;;;;;;16.82;85.34;99568.78;4963560;28;20525;-78
2021/07/28 13:47:02;;;;;;;0.43;0.32;;;;;;;17.63;84.54;99555.94;4970576;28;20026;-78
2021/07/28 13:49:27;;;;;;;0.50;0.50;;;;;;;18.35;83.47;99551.53;4960024;28;20061;-77
2021/07/28 13:51:53;;;;;;;1.05;0.30;;;;;;;19.30;82.93;99546.09;4983442;28;20031;-78
2021/07/28 13:54:18;;;;;;;0.40;0.32;;;;;;;21.19;79.62;99545.59;5001195;28;20026;-77
2021/07/28 13:56:44;;;;;;;1.48;0.40;;;;;;;23.06;76.40;99555.13;4991001;28;20023;-78
2021/07/28 13:59:11;;;;;;;1.83;0.50;;;;;;;23.29;73.20;99544.00;4992079;28;20034;-76
2021/07/28 14:01:56;;;;;;;;;;;;;;;;;;;;;
2021/07/28 14:04:22;;;;;;;6.97;0.85;;;;;;;22.72;72.99;99538.22;4993548;28;20100;-76
2021/07/28 14:06:47;;;;;;;0.63;0.40;;;;;;;22.54;72.85;99514.78;4978088;28;20084;-77
2021/07/28 14:09:13;;;;;;;0.50;0.50;;;;;;;22.70;74.21;99512.69;4978799;28;20026;-78
2021/07/28 14:11:38;;;;;;;1.88;0.70;;;;;;;23.81;72.62;99527.59;4989354;28;20117;-78
2021/07/28 14:14:04;;;;;;;1.85;0.60;;;;;;;24.99;70.62;99546.19;4981557;28;20034;-77
2021/07/28 14:16:29;;;;;;;2.78;0.68;;;;;;;25.69;68.12;99535.94;4996211;28;21076;-77
2021/07/28 14:18:55;;;;;;;6.10;0.80;;;;;;;26.24;64.61;99532.25;4976132;28;20042;-76
2021/07/28 14:21:20;;;;;;;2.47;0.80;;;;;;;26.94;63.13;99526.44;5000783;28;20006;-76
2021/07/28 14:23:45;;;;;;;2.22;0.73;;;;;;;27.63;61.98;99529.25;5001215;28;20101;-78
2021/07/28 14:26:11;;;;;;;1.52;0.60;;;;;;;28.07;59.31;99536.34;5004532;28;20026;-77
2021/07/28 14:28:36;;;;;;;0.52;0.30;;;;;;;28.32;56.68;99522.19;4993644;28;20034;-77
2021/07/28 14:31:02;;;;;;;1.10;0.50;;;;;;;28.50;51.45;99532.53;4980230;28;20069;-76
2021/07/28 14:33:27;;;;;;;1.05;0.50;;;;;;;28.75;55.15;99540.06;4994096;28;20057;-77
2021/07/28 14:35:52;;;;;;;0.73;0.40;;;;;;;29.21;54.92;99558.63;5011783;28;20038;-76
2021/07/28 14:38:18;;;;;;;1.38;0.70;;;;;;;28.25;53.65;99550.34;4996851;28;20065;-77
2021/07/28 14:40:43;;;;;;;1.65;0.35;;;;;;;26.69;52.93;99570.47;4999084;28;20142;-76
2021/07/28 14:43:09;;;;;;;0.77;0.38;;;;;;;24.61;51.52;99562.97;5000822;28;20424;-77
2021/07/28 14:45:34;;;;;;;3.60;0.50;;;;;;;22.98;56.50;99550.59;5004477;28;20029;-77
2021/07/28 14:48:00;;;;;;;1.60;0.40;;;;;;;21.68;58.22;99564.66;4999607;28;20029;-75
2021/07/28 14:50:25;;;;;;;2.03;0.45;;;;;;;20.71;59.98;99557.47;5002914;28;20027;-76
2021/07/28 14:52:50;;;;;;;2.28;0.40;;;;;;;19.66;68.53;99581.31;4978801;28;20038;-76
2021/07/28 14:55:16;;;;;;;1.63;0.73;;;;;;;18.52;77.95;99579.03;4998165;28;20093;-78
2021/07/28 14:57:42;;;;;;;1.58;0.70;;;;;;;17.77;80.37;99568.69;4997462;28;20090;-78
2021/07/28 15:00:08;;;;;;;2.78;1.02;;;;;;;17.57;82.99;99562.81;4995125;28;20065;-77
2021/07/28 15:02:35;;;;;;;3.30;1.35;;;;;;;17.82;84.36;99535.31;4965708;28;20031;-75
2021/07/28 15:05:01;;;;;;;2.17;1.30;;;;;;;19.10;83.96;99550.59;4989894;28;20037;-75
2021/07/28 15:07:27;;;;;;;1.33;0.95;;;;;;;19.95;80.31;99548.94;4999909;28;20034;-77
2021/07/28 15:09:52;;;;;;;12.63;0.82;;;;;;;20.99;79.90;99545.50;4980951;28;20042;-78
2021/07/28 15:12:17;;;;;;;1.30;0.52;;;;;;;22.32;77.44;99550.56;4972137;28;20034;-75
2021/07/28 15:14:43;;;;;;;4.65;0.60;;;;;;;23.55;75.41;99544.38;4969379;28;20054;-76
2021/07/28 15:17:08;;;;;;;0.63;0.60;;;;;;;23.90;71.12;99537.72;4991802;28;20030;-75
2021/07/28 15:19:34;;;;;;;3.45;0.90;;;;;;;23.85;71.35;99545.22;4958882;28;20097;-76
2021/07/28 15:21:59;;;;;;;1.83;0.98;;;;;;;24.28;65.09;99558.16;4994909;28;20049;-77
2021/07/28 15:24:27;;;;;;;4.70;0.57;;;;;;;24.61;66.21;99531.44;4991865;28;20087;-76
2021/07/28 15:26:52;;;;;;;0.57;0.50;;;;;;;25.24;64.03;99529.59;4982555;28;20041;-76
2021/07/28 15:29:18;;;;;;;1.90;0.80;;;;;;;25.73;63.78;99533.16;4963400;28;20030;-76
2021/07/28 15:31:47;;;;;;;2.40;0.52;;;;;;;26.19;62.23;99538.22;4966818;28;20512;-75
2021/07/28 15:34:12;;;;;;;2.65;0.70;;;;;;;26.74;59.85;99539.25;4972031;28;20022;-76
2021/07/28 15:36:38;;;;;;;2.70;0.55;;;;;;;27.14;56.74;99551.28;4982284;28;20062;-76
2021/07/28 15:39:16;;;;;;;1.52;0.70;;;;;;;27.55;57.25;99539.66;4985862;28;20077;-74
2021/07/28 15:41:56;;;;;;;1.63;0.90;;;;;;;28.15;56.65;99551.19;4977468;28;20026;-73
2021/07/28 15:44:22;;;;;;;2.00;0.70;;;;;;;28.64;53.60;99549.38;4974363;28;20485;-73
2021/07/28 15:46:49;;;;;;;1.27;0.55;;;;;;;28.81;51.51;99555.28;4985866;28;20061;-74
2021/07/28 15:49:15;;;;;;;2.35;0.55;;;;;;;27.67;50.21;99533.63;4970993;28;20034;-74
2021/07/28 15:51:41;;;;;;;2.88;0.50;;;;;;;26.14;49.67;99533.03;4980310;28;20623;-74
2021/07/28 15:54:06;;;;;;;0.63;0.50;;;;;;;24.86;54.51;99526.88;4982477;28;20034;-74
2021/07/28 15:56:33;;;;;;;1.17;0.40;;;;;;;24.25;58.70;99531.78;4965289;28;20035;-74
2021/07/28 15:58:59;;;;;;;4.50;1.45;;;;;;;24.99;55.37;99540.59;4967091;28;20496;-72
2021/07/28 16:01:25;;;;;;;0.65;0.50;;;;;;;25.92;52.95;99530.09;4952721;28;20038;-73
2021/07/28 16:03:54;;;;;;;0.63;0.40;;;;;;;26.42;51.59;99534.31;4956319;28;20027;-74
2021/07/28 16:06:20;;;;;;;1.17;0.50;;;;;;;27.00;51.83;99547.28;4961153;28;20038;-74
2021/07/28 16:08:46;;;;;;;0.40;0.30;;;;;;;26.82;48.51;99526.81;4982804;28;20144;-75
2021/07/28 16:11:12;;;;;;;0.35;0.32;;;;;;;25.88;49.04;99534.06;4950662;28;20066;-73
2021/07/28 16:13:44;;;;;;;2.72;0.43;;;;;;;24.85;49.19;99528.09;4996833;28;20099;-75
2021/07/28 16:16:10;;;;;;;0.95;0.50;;;;;;;23.97;52.04;99529.44;4973314;28;20041;-73
2021/07/28 16:18:50;;;;;;;3.10;0.50;;;;;;;23.33;53.26;99521.72;4981814;28;20037;-72
2021/07/28 16:21:18;;;;;;;4.22;0.47;;;;;;;23.12;54.01;99528.56;4999201;28;20061;-72
2021/07/28 16:23:48;;;;;;;3.15;0.50;;;;;;;23.77;53.74;99546.31;4981350;28;20022;-75
2021/07/28 16:26:18;;;;;;;5.32;0.73;;;;;;;24.14;53.11;99542.84;4998318;28;20096;-74
2021/07/28 16:28:53;;;;;;;0.28;0.10;;;;;;;24.37;51.08;99551.09;4998441;28;20049;-76
2021/07/28 16:31:21;;;;;;;0.40;0.32;;;;;;;24.59;47.19;99551.38;4991425;28;20081;-73
2021/07/28 16:33:48;;;;;;;1.45;0.30;;;;;;;24.02;46.97;99551.44;5000936;28;20515;-76
2021/07/28 16:36:22;;;;;;;3.67;0.50;;;;;;;23.25;46.50;99545.91;4975702;28;20038;-74
2021/07/28 16:38:48;;;;;;;2.60;0.30;;;;;;;22.56;50.58;99556.97;4976277;28;20033;-75
2021/07/28 16:41:13;;;;;;;0.47;0.30;;;;;;;22.66;53.75;99568.34;4978660;28;20038;-75
2021/07/28 16:43:39;;;;;;;0.68;0.32;;;;;;;23.34;51.21;99568.75;4981597;28;20100;-74
2021/07/28 16:46:04;;;;;;;2.70;0.22;;;;;;;23.69;49.88;99561.34;4963687;28;20042;-74
2021/07/28 16:48:30;;;;;;;1.25;0.40;;;;;;;24.05;49.00;99561.88;4980751;28;20037;-73
2021/07/28 16:50:55;;;;;;;1.15;0.35;;;;;;;24.21;47.92;99562.47;4970215;28;20030;-75
2021/07/28 16:53:21;;;;;;;0.63;0.20;;;;;;;24.15;49.80;99566.81;4974857;28;20457;-75
2021/07/28 16:55:52;;;;;;;0.70;0.20;;;;;;;24.78;48.42;99564.34;4962123;28;20054;-73
2021/07/28 16:58:24;;;;;;;0.68;0.30;;;;;;;25.41;49.41;99556.16;4973579;28;20042;-74
2021/07/28 17:00:50;;;;;;;1.80;0.32;;;;;;;26.00;47.03;99574.97;4947255;28;20026;-74
2021/07/28 17:03:20;;;;;;;0.70;0.40;;;;;;;26.46;45.64;99582.78;4981546;28;20396;-74
2021/07/28 17:05:55;;;;;;;4.38;0.40;;;;;;;26.73;45.09;99572.06;4955905;28;20120;-74
2021/07/28 17:08:22;;;;;;;0.85;0.57;;;;;;;26.23;42.29;99572.69;4975089;28;20029;-74
2021/07/28 17:10:57;;;;;;;0.70;0.30;;;;;;;25.37;42.54;99577.72;4949656;28;20088;-76
2021/07/28 17:13:26;;;;;;;3.00;0.35;;;;;;;24.39;42.80;99570.28;4977656;28;20088;-75
2021/07/28 17:18:42;;;;;;;0.45;0.25;;;;;;;23.52;43.47;99552.34;4449158;26;20054;-75
2021/07/28 17:21:18;;;;;;;;;;;;;;;24.09;42.11;99562.72;4962680;28;20073;-74
2021/07/28 17:24:04;;;;;;;3.20;0.50;;;;;;;24.18;41.98;99566.03;4990052;28;19910;-73
2021/07/28 17:26:53;;;;;;;0.73;0.30;;;;;;;24.48;41.36;99556.81;4963115;28;20566;-75
2021/07/28 17:34:35;;;;;;;2.17;0.30;;;;;;;22.49;43.49;99557.66;4762384;26;20489;-74
2021/07/28 17:37:01;;;;;;;0.65;0.47;;;;;;;22.61;45.58;99568.63;4976926;28;20070;-74
2021/07/28 17:39:26;;;;;;;0.85;0.32;;;;;;;23.34;44.37;99556.81;4981186;28;20030;-73
2021/07/28 17:42:01;;;;;;;0.63;0.17;;;;;;;24.04;43.55;99571.44;4976997;28;20030;-73
2021/07/28 17:59:41;;;;;;;1.20;0.40;;;;;;;25.51;38.79;99577.81;4979772;28;20033;-75
2021/07/28 18:02:08;;;;;;;1.45;0.60;;;;;;;25.04;39.86;99577.41;4958197;28;20059;-74
2021/07/28 18:04:34;;;;;;;1.33;0.40;;;;;;;25.08;40.73;99583.00;4957743;28;20030;-74
2021/07/28 18:07:01;;;;;;;2.78;0.55;;;;;;;25.13;40.53;99579.88;4953850;28;20118;-73